createdAt,value
2023-01-20T00:01:30.885Z,0.60
2023-01-20T00:03:58.611Z,0.70
2023-01-20T00:06:29.884Z,0.70
2023-01-20T00:08:59.238Z,0.70
2023-01-20T00:11:27.479Z,0.80
2023-01-20T00:13:59.265Z,0.90
2023-01-20T00:16:27.410Z,0.90
2023-01-20T00:18:55.483Z,1.00
2023-01-20T00:21:23.314Z,1.10
2023-01-20T00:23:50.740Z,1.10
2023-01-20T00:26:20.507Z,1.10
2023-01-20T00:28:47.992Z,1.20
2023-01-20T00:31:16.701Z,1.20
2023-01-20T00:33:45.582Z,1.20
2023-01-20T00:36:14.696Z,1.20
2023-01-20T00:38:42.001Z,1.20
2023-01-20T00:41:10.108Z,1.20
2023-01-20T00:43:38.158Z,1.30
2023-01-20T00:46:06.630Z,1.30
2023-01-20T00:48:35.002Z,1.30
2023-01-20T00:51:03.544Z,1.30
2023-01-20T00:53:31.204Z,1.30
2023-01-20T00:55:58.699Z,1.30
2023-01-20T00:58:26.263Z,1.30
2023-01-20T01:00:55.266Z,1.30
2023-01-20T01:03:23.111Z,1.30
2023-01-20T01:05:50.901Z,1.30
2023-01-20T01:08:18.154Z,1.30
2023-01-20T01:10:45.589Z,1.30
2023-01-20T01:13:12.975Z,1.30
2023-01-20T01:15:40.277Z,1.30
2023-01-20T01:18:07.493Z,1.30
2023-01-20T01:20:34.759Z,1.30
2023-01-20T01:23:02.017Z,1.30
2023-01-20T01:25:29.374Z,1.40
2023-01-20T01:27:56.650Z,1.40
2023-01-20T01:30:23.931Z,1.40
2023-01-20T01:32:51.233Z,1.40
2023-01-20T01:35:19.604Z,1.40
2023-01-20T01:37:47.337Z,1.50
2023-01-20T01:40:14.810Z,1.50
2023-01-20T01:42:42.962Z,1.50
2023-01-20T01:45:10.269Z,1.50
2023-01-20T01:47:46.460Z,1.40
2023-01-20T01:50:28.140Z,1.40
2023-01-20T01:52:56.795Z,1.30
2023-01-20T01:55:28.881Z,1.20
2023-01-20T01:57:58.466Z,1.30
2023-01-20T02:00:26.282Z,1.40
2023-01-20T02:02:54.822Z,1.40
2023-01-20T02:05:23.977Z,1.50
2023-01-20T02:07:52.031Z,1.50
2023-01-20T02:10:19.469Z,1.50
2023-01-20T02:12:49.583Z,1.50
2023-01-20T02:15:22.931Z,1.50
2023-01-20T02:18:11.842Z,1.50
2023-01-20T02:21:00.115Z,1.50
2023-01-20T02:23:33.516Z,1.50
2023-01-20T02:26:39.352Z,1.50
2023-01-20T02:29:45.046Z,1.50
2023-01-20T02:32:23.328Z,1.50
2023-01-20T02:34:58.706Z,1.50
2023-01-20T02:37:30.167Z,1.50
2023-01-20T02:40:39.480Z,1.50
2023-01-20T02:43:15.084Z,1.50
2023-01-20T02:46:01.510Z,1.50
2023-01-20T02:49:02.189Z,1.50
2023-01-20T02:51:38.188Z,1.50
2023-01-20T02:54:09.693Z,1.50
2023-01-20T02:56:38.482Z,1.50
2023-01-20T02:59:10.980Z,1.50
2023-01-20T03:01:54.734Z,1.50
2023-01-20T03:04:27.785Z,1.50
2023-01-20T03:06:58.576Z,1.50
2023-01-20T03:09:30.489Z,1.40
2023-01-20T03:12:16.536Z,1.40
2023-01-20T03:14:44.118Z,1.40
2023-01-20T03:17:11.686Z,1.40
2023-01-20T03:19:39.112Z,1.40
2023-01-20T03:22:06.910Z,1.40
2023-01-20T03:24:37.607Z,1.40
2023-01-20T03:27:05.737Z,1.50
2023-01-20T03:29:33.042Z,1.50
2023-01-20T03:32:03.009Z,1.50
2023-01-20T03:34:33.948Z,1.50
2023-01-20T03:37:02.304Z,1.60
2023-01-20T03:39:30.187Z,1.60
2023-01-20T03:42:07.205Z,1.60
2023-01-20T03:45:11.859Z,1.60
2023-01-20T03:47:54.181Z,1.70
2023-01-20T03:50:28.957Z,1.60
2023-01-20T03:53:06.061Z,1.70
2023-01-20T03:56:14.045Z,1.70
2023-01-20T03:58:45.630Z,1.70
2023-01-20T04:01:18.786Z,1.60
2023-01-20T04:03:50.003Z,1.60
2023-01-20T04:06:19.608Z,1.70
2023-01-20T04:08:58.711Z,1.70
2023-01-20T04:11:27.215Z,1.60
2023-01-20T04:13:54.864Z,1.60
2023-01-20T04:16:23.807Z,1.60
2023-01-20T04:18:52.079Z,1.60
2023-01-20T04:21:35.473Z,1.60
2023-01-20T04:24:08.823Z,1.60
2023-01-20T04:26:36.408Z,1.60
2023-01-20T04:29:10.450Z,1.60
2023-01-20T04:31:39.654Z,1.60
2023-01-20T04:34:07.062Z,1.60
2023-01-20T04:36:34.390Z,1.60
2023-01-20T04:39:01.663Z,1.60
2023-01-20T04:41:28.972Z,1.60
2023-01-20T04:43:56.275Z,1.60
2023-01-20T04:46:23.800Z,1.50
2023-01-20T04:48:51.225Z,1.50
2023-01-20T04:51:18.668Z,1.60
2023-01-20T04:53:45.988Z,1.60
2023-01-20T04:56:15.243Z,1.50
2023-01-20T04:58:43.443Z,1.50
2023-01-20T05:01:10.886Z,1.60
2023-01-20T05:03:38.722Z,1.50
2023-01-20T05:06:06.468Z,1.50
2023-01-20T05:08:33.930Z,1.50
2023-01-20T05:11:01.171Z,1.50
2023-01-20T05:13:28.643Z,1.50
2023-01-20T05:15:56.161Z,1.50
2023-01-20T05:18:23.541Z,1.50
2023-01-20T05:20:50.828Z,1.50
2023-01-20T05:23:18.117Z,1.50
2023-01-20T05:25:53.633Z,1.50
2023-01-20T05:28:21.310Z,1.50
2023-01-20T05:30:50.683Z,1.40
2023-01-20T05:33:18.068Z,1.40
2023-01-20T05:35:45.424Z,1.40
2023-01-20T05:38:12.835Z,1.40
2023-01-20T05:40:40.217Z,1.40
2023-01-20T05:43:07.575Z,1.40
2023-01-20T05:45:35.429Z,1.40
2023-01-20T05:48:03.196Z,1.40
2023-01-20T05:50:30.511Z,1.40
2023-01-20T05:52:57.897Z,1.40
2023-01-20T05:55:25.213Z,1.40
2023-01-20T05:57:52.515Z,1.30
2023-01-20T06:00:20.486Z,1.30
2023-01-20T06:02:48.032Z,1.30
2023-01-20T06:05:15.608Z,1.20
2023-01-20T06:07:43.480Z,1.20
2023-01-20T06:10:11.253Z,1.20
2023-01-20T06:12:38.634Z,1.20
2023-01-20T06:15:06.610Z,1.20
2023-01-20T06:17:34.302Z,1.20
2023-01-20T06:20:02.362Z,1.20
2023-01-20T06:22:29.687Z,1.20
2023-01-20T06:24:57.045Z,1.20
2023-01-20T06:27:24.398Z,1.20
2023-01-20T06:29:51.647Z,1.20
2023-01-20T06:32:19.232Z,1.20
2023-01-20T06:34:46.557Z,1.20
2023-01-20T06:37:13.979Z,1.20
2023-01-20T06:39:41.273Z,1.20
2023-01-20T06:42:08.691Z,1.10
2023-01-20T06:44:36.104Z,1.10
2023-01-20T06:47:03.537Z,1.10
2023-01-20T06:49:31.079Z,1.10
2023-01-20T06:51:58.386Z,1.10
2023-01-20T06:54:27.160Z,1.10
2023-01-20T06:56:54.368Z,1.10
2023-01-20T06:59:21.644Z,1.10
2023-01-20T07:01:49.874Z,1.10
2023-01-20T07:04:17.280Z,1.10
2023-01-20T07:06:44.670Z,1.10
2023-01-20T07:09:13.099Z,1.10
2023-01-20T07:11:40.700Z,1.10
2023-01-20T07:14:08.736Z,1.10
2023-01-20T07:16:36.449Z,1.10
2023-01-20T07:19:03.787Z,1.10
2023-01-20T07:21:31.335Z,1.00
2023-01-20T07:24:02.546Z,1.00
2023-01-20T07:26:30.906Z,1.00
2023-01-20T07:28:58.788Z,1.00
2023-01-20T07:31:28.595Z,1.00
2023-01-20T07:33:59.096Z,1.00
2023-01-20T07:36:27.391Z,1.10
2023-01-20T07:38:55.192Z,1.10
2023-01-20T07:41:23.177Z,1.10
2023-01-20T07:43:52.422Z,1.10
2023-01-20T07:46:20.138Z,1.10
2023-01-20T07:48:47.589Z,1.10
2023-01-20T07:51:16.480Z,1.20
2023-01-20T07:53:49.263Z,1.20
2023-01-20T07:56:22.424Z,1.20
2023-01-20T07:58:50.640Z,1.20
2023-01-20T08:01:19.537Z,1.30
2023-01-20T08:03:47.332Z,1.30
2023-01-20T08:06:17.319Z,1.30
2023-01-20T08:08:44.701Z,1.30
2023-01-20T08:11:13.835Z,1.30
2023-01-20T08:13:41.736Z,1.40
2023-01-20T08:16:12.027Z,1.50
2023-01-20T08:18:40.267Z,1.50
2023-01-20T08:21:16.721Z,1.50
2023-01-20T08:23:43.988Z,1.50
2023-01-20T08:26:11.351Z,1.50
2023-01-20T08:28:38.803Z,1.50
2023-01-20T08:31:09.357Z,1.60
2023-01-20T08:33:37.208Z,1.70
2023-01-20T08:36:11.118Z,1.80
2023-01-20T08:38:39.367Z,1.80
2023-01-20T08:41:21.519Z,1.90
2023-01-20T08:43:49.243Z,1.90
2023-01-20T08:46:18.898Z,1.90
2023-01-20T08:48:46.939Z,1.80
2023-01-20T08:51:23.712Z,1.90
2023-01-20T08:53:51.799Z,1.90
2023-01-20T08:56:19.678Z,2.00
2023-01-20T08:58:47.121Z,2.10
2023-01-20T09:01:23.478Z,2.10
2023-01-20T09:04:04.227Z,2.30
2023-01-20T09:06:38.388Z,2.20
2023-01-20T09:09:05.744Z,2.10
2023-01-20T09:11:33.598Z,2.10
2023-01-20T09:14:01.093Z,2.10
2023-01-20T09:16:28.409Z,2.60
2023-01-20T09:18:55.821Z,3.00
2023-01-20T09:21:23.288Z,3.60
2023-01-20T09:23:50.679Z,4.50
2023-01-20T09:26:34.403Z,4.80
2023-01-20T09:29:09.189Z,4.30
2023-01-20T09:31:51.800Z,3.80
2023-01-20T09:34:24.462Z,3.30
2023-01-20T09:36:52.930Z,3.10
2023-01-20T09:39:38.971Z,3.20
2023-01-20T09:43:08.147Z,3.20
2023-01-20T09:45:38.976Z,3.10
2023-01-20T09:48:37.269Z,3.00
2023-01-20T09:51:34.788Z,3.00
2023-01-20T09:54:20.769Z,2.90
2023-01-20T09:56:51.877Z,2.90
2023-01-20T09:59:26.903Z,3.10
2023-01-20T10:02:01.258Z,3.10
2023-01-20T10:04:38.820Z,3.00
2023-01-20T10:07:17.816Z,3.10
2023-01-20T10:10:00.127Z,3.10
2023-01-20T10:12:36.522Z,3.20
2023-01-20T10:15:22.687Z,3.20
2023-01-20T10:17:59.423Z,3.30
2023-01-20T10:20:37.172Z,3.20
2023-01-20T10:23:07.456Z,3.10
2023-01-20T10:25:45.332Z,3.00
2023-01-20T10:28:18.975Z,3.00
2023-01-20T10:30:48.051Z,2.90
2023-01-20T10:33:24.349Z,2.90
2023-01-20T10:35:54.799Z,2.90
2023-01-20T10:38:34.231Z,2.80
2023-01-20T10:41:26.092Z,2.80
2023-01-20T10:43:53.684Z,2.70
2023-01-20T10:46:57.449Z,2.70
2023-01-20T10:49:35.342Z,2.80
2023-01-20T10:52:46.519Z,2.80
2023-01-20T10:55:25.531Z,2.80
2023-01-20T10:58:24.607Z,2.80
2023-01-20T11:00:52.506Z,2.90
2023-01-20T11:03:22.874Z,2.90
2023-01-20T11:05:51.812Z,2.90
2023-01-20T11:08:26.692Z,2.90
2023-01-20T11:10:59.429Z,2.90
2023-01-20T11:13:26.854Z,2.80
2023-01-20T11:16:00.969Z,2.80
2023-01-20T11:18:30.538Z,2.70
2023-01-20T11:21:04.592Z,2.70
2023-01-20T11:23:39.337Z,2.70
2023-01-20T11:26:11.134Z,2.70
2023-01-20T11:28:57.203Z,2.60
2023-01-20T11:32:06.220Z,2.50
2023-01-20T11:34:36.250Z,2.70
2023-01-20T11:37:06.336Z,2.80
2023-01-20T11:39:44.758Z,2.70
2023-01-20T11:42:22.646Z,2.60
2023-01-20T11:44:52.605Z,2.50
2023-01-20T11:47:31.979Z,2.50
2023-01-20T11:50:16.715Z,2.30
2023-01-20T11:52:47.143Z,2.30
2023-01-20T11:55:20.440Z,2.40
2023-01-20T11:57:58.501Z,2.30
2023-01-20T12:00:43.906Z,2.30
2023-01-20T12:03:17.566Z,2.20
2023-01-20T12:06:18.674Z,2.20
2023-01-20T12:08:52.311Z,2.20
2023-01-20T12:11:27.547Z,2.20
2023-01-20T12:14:28.163Z,2.10
2023-01-20T12:17:04.747Z,2.20
2023-01-20T12:19:58.967Z,2.20
2023-01-20T12:22:37.521Z,2.20
2023-01-20T12:25:19.888Z,2.30
2023-01-20T12:27:51.387Z,2.30
2023-01-20T12:30:31.258Z,2.20
2023-01-20T12:32:58.913Z,2.30
2023-01-20T12:35:31.285Z,2.30
2023-01-20T12:38:10.311Z,2.30
2023-01-20T12:40:49.246Z,2.40
2023-01-20T12:43:22.647Z,2.30
2023-01-20T12:46:04.146Z,2.20
2023-01-20T12:48:52.908Z,2.30
2023-01-20T12:51:43.086Z,2.40
2023-01-20T12:54:16.340Z,2.40
2023-01-20T12:57:13.309Z,2.40
2023-01-20T12:59:44.062Z,2.50
2023-01-20T13:02:37.554Z,2.40
2023-01-20T13:05:16.731Z,2.40
2023-01-20T13:07:57.109Z,2.40
2023-01-20T13:10:51.236Z,2.40
2023-01-20T13:14:20.339Z,2.40
2023-01-20T13:17:00.369Z,2.40
2023-01-20T13:19:32.518Z,2.20
2023-01-20T13:22:20.131Z,2.20
2023-01-20T13:24:53.607Z,2.20
2023-01-20T13:27:41.613Z,2.20
2023-01-20T13:30:50.912Z,2.20
2023-01-20T13:33:29.650Z,2.20
2023-01-20T13:36:00.000Z,2.30
2023-01-20T13:38:35.260Z,2.20
2023-01-20T13:41:06.228Z,2.30
2023-01-20T13:43:42.820Z,2.20
2023-01-20T13:46:16.952Z,2.30
2023-01-20T13:49:24.085Z,2.30
2023-01-20T13:51:54.191Z,2.30
2023-01-20T13:54:34.024Z,2.30
2023-01-20T13:57:28.122Z,2.40
2023-01-20T13:59:56.389Z,2.40
2023-01-20T14:02:28.630Z,2.40
2023-01-20T14:04:58.664Z,2.40
2023-01-20T14:07:30.966Z,2.30
2023-01-20T14:10:00.217Z,2.40
2023-01-20T14:12:27.947Z,2.40
2023-01-20T14:20:02.336Z,2.20
2023-01-20T14:22:31.974Z,2.20
2023-01-20T14:25:01.637Z,2.20
2023-01-20T14:27:41.913Z,2.20
2023-01-20T14:30:27.442Z,2.30
2023-01-20T14:32:54.867Z,2.30
2023-01-20T14:35:33.391Z,2.30
2023-01-20T14:38:01.225Z,2.20
2023-01-20T14:40:35.330Z,2.20
2023-01-20T14:43:12.873Z,2.20
2023-01-20T14:45:43.750Z,2.10
2023-01-20T14:48:19.070Z,2.20
2023-01-20T14:50:53.958Z,2.20
2023-01-20T14:53:21.222Z,2.20
2023-01-20T14:56:02.217Z,2.20
2023-01-20T14:58:32.291Z,2.20
2023-01-20T15:01:04.882Z,2.20
2023-01-20T15:03:32.447Z,2.30
2023-01-20T15:06:19.342Z,2.30
2023-01-20T15:09:04.906Z,2.20
2023-01-20T15:11:33.422Z,2.20
2023-01-20T15:14:01.100Z,2.10
2023-01-20T15:16:38.825Z,2.20
2023-01-20T15:19:15.438Z,2.20
2023-01-20T15:21:45.941Z,2.20
2023-01-20T15:24:30.814Z,2.20
2023-01-20T15:27:00.167Z,2.20
2023-01-20T15:29:28.847Z,2.10
2023-01-20T15:31:58.614Z,2.10
2023-01-20T15:34:27.335Z,2.10
2023-01-20T15:36:55.790Z,2.10
2023-01-20T15:39:25.948Z,2.10
2023-01-20T15:41:57.005Z,2.10
2023-01-20T15:44:25.641Z,2.10
2023-01-20T15:46:56.021Z,2.10
2023-01-20T15:49:25.225Z,2.10
2023-01-20T15:51:53.090Z,2.10
2023-01-20T15:54:20.307Z,2.10
2023-01-20T15:56:47.627Z,2.00
2023-01-20T15:59:17.764Z,2.10
2023-01-20T16:01:47.220Z,2.10
2023-01-20T16:04:15.037Z,2.10
2023-01-20T16:06:42.633Z,2.20
2023-01-20T16:09:26.438Z,2.10
2023-01-20T16:11:54.489Z,2.20
2023-01-20T16:14:21.830Z,2.20
2023-01-20T16:16:50.273Z,2.20
2023-01-20T16:19:18.039Z,2.30
2023-01-20T16:21:45.863Z,2.20
2023-01-20T16:24:13.394Z,2.20
2023-01-20T16:26:42.793Z,2.20
2023-01-20T16:29:10.137Z,2.20
2023-01-20T16:31:37.520Z,2.20
2023-01-20T16:34:05.345Z,2.20
2023-01-20T16:36:32.942Z,2.20
2023-01-20T16:39:00.616Z,2.20
2023-01-20T16:41:30.668Z,2.30
2023-01-20T16:43:58.632Z,2.30
2023-01-20T16:46:28.950Z,2.30
2023-01-20T16:49:01.766Z,2.30
2023-01-20T16:51:30.393Z,2.30
2023-01-20T16:53:58.627Z,2.30
2023-01-20T16:56:28.401Z,2.20
2023-01-20T16:59:01.337Z,2.30
2023-01-20T17:01:30.489Z,2.30
2023-01-20T17:03:59.809Z,2.30
2023-01-20T17:06:34.766Z,2.30
2023-01-20T17:09:05.227Z,2.20
2023-01-20T17:11:37.912Z,2.20
2023-01-20T17:14:07.144Z,2.20
2023-01-20T17:16:34.538Z,2.20
2023-01-20T17:19:02.388Z,2.20
2023-01-20T17:21:32.251Z,2.10
2023-01-20T17:24:02.379Z,2.10
2023-01-20T17:26:30.531Z,2.00
2023-01-20T17:29:02.917Z,1.90
2023-01-20T17:31:33.060Z,1.80
2023-01-20T17:34:00.457Z,1.60
2023-01-20T17:36:29.533Z,1.40
2023-01-20T17:38:57.982Z,1.20
2023-01-20T17:41:25.248Z,1.00
2023-01-20T17:43:52.446Z,0.80
2023-01-20T17:46:22.544Z,0.60
2023-01-20T17:48:50.357Z,0.50
2023-01-20T17:51:23.498Z,0.40
2023-01-20T17:53:52.188Z,0.20
2023-01-20T17:56:20.879Z,0.20
2023-01-20T17:58:49.056Z,0.10
2023-01-20T18:01:19.396Z,0.10
2023-01-20T18:03:48.843Z,0.00
2023-01-20T18:06:18.173Z,-0.10
2023-01-20T18:08:51.943Z,-0.10
2023-01-20T18:11:21.564Z,-0.20
2023-01-20T18:13:51.195Z,-0.30
2023-01-20T18:16:21.121Z,-0.30
2023-01-20T18:18:49.729Z,-0.20
2023-01-20T18:21:20.197Z,-0.20
2023-01-20T18:23:48.928Z,-0.30
2023-01-20T18:26:18.363Z,-0.30
2023-01-20T18:28:48.920Z,-0.50
2023-01-20T18:31:19.675Z,-0.40
2023-01-20T18:33:49.575Z,-0.40
2023-01-20T18:36:31.613Z,-0.40
2023-01-20T18:39:14.845Z,-0.30
2023-01-20T18:41:42.635Z,-0.30
2023-01-20T18:44:10.989Z,-0.40
2023-01-20T18:46:38.670Z,-0.50
2023-01-20T18:49:09.494Z,-0.50
2023-01-20T18:51:37.273Z,-0.50
2023-01-20T18:54:07.670Z,-0.60
2023-01-20T18:56:35.100Z,-0.70
2023-01-20T18:59:04.793Z,-0.50
2023-01-20T19:01:35.288Z,-0.60
2023-01-20T19:04:04.302Z,-0.60
2023-01-20T19:06:40.630Z,-0.70
2023-01-20T19:09:08.747Z,-0.80
2023-01-20T19:11:39.618Z,-0.80
2023-01-20T19:14:09.367Z,-0.70
2023-01-20T19:16:48.976Z,-0.70
2023-01-20T19:19:18.985Z,-0.70
2023-01-20T19:21:49.451Z,-0.90
2023-01-20T19:24:20.155Z,-1.00
2023-01-20T19:26:48.430Z,-1.10
2023-01-20T19:29:17.287Z,-1.10
2023-01-20T19:31:45.574Z,-1.20
2023-01-20T19:34:16.321Z,-1.10
2023-01-20T19:36:43.849Z,-1.00
2023-01-20T19:39:11.417Z,-1.00
2023-01-20T19:41:39.562Z,-1.00
2023-01-20T19:44:07.778Z,-0.80
2023-01-20T19:46:38.963Z,-0.80
2023-01-20T19:49:07.553Z,-0.90
2023-01-20T19:51:36.599Z,-0.80
2023-01-20T19:54:06.124Z,-0.80
2023-01-20T19:56:35.672Z,-0.80
2023-01-20T19:59:05.863Z,-0.80
2023-01-20T20:01:36.141Z,-0.80
2023-01-20T20:04:12.723Z,-0.90
2023-01-20T20:06:45.689Z,-0.90
2023-01-20T20:09:20.111Z,-0.90
2023-01-20T20:11:49.066Z,-0.90
2023-01-20T20:14:18.698Z,-0.80
2023-01-20T20:16:46.592Z,-0.90
2023-01-20T20:19:17.004Z,-0.80
2023-01-20T20:21:45.093Z,-0.80
2023-01-20T20:24:13.939Z,-0.80
2023-01-20T20:26:43.046Z,-0.80
2023-01-20T20:29:11.211Z,-0.80
2023-01-20T20:31:40.301Z,-0.80
2023-01-20T20:34:11.521Z,-0.90
2023-01-20T20:36:39.910Z,-1.00
2023-01-20T20:39:07.899Z,-1.00
2023-01-20T20:41:36.635Z,-1.10
2023-01-20T20:44:04.364Z,-1.10
2023-01-20T20:46:32.024Z,-1.10
2023-01-20T20:49:00.929Z,-1.10
2023-01-20T20:51:31.650Z,-1.20
2023-01-20T20:54:01.510Z,-1.20
2023-01-20T20:56:32.985Z,-1.20
2023-01-20T20:59:03.068Z,-1.20
2023-01-20T21:01:38.588Z,-1.20
2023-01-20T21:04:06.189Z,-1.20
2023-01-20T21:06:33.752Z,-1.10
2023-01-20T21:09:01.366Z,-1.10
2023-01-20T21:11:28.927Z,-1.10
2023-01-20T21:13:56.528Z,-1.20
2023-01-20T21:16:25.266Z,-1.10
2023-01-20T21:18:53.930Z,-1.10
2023-01-20T21:21:21.847Z,-1.10
2023-01-20T21:23:55.051Z,-1.10
2023-01-20T21:26:24.200Z,-1.00
2023-01-20T21:28:51.497Z,-1.00
2023-01-20T21:31:21.872Z,-1.10
2023-01-20T21:33:58.295Z,-1.10
2023-01-20T21:36:27.234Z,-1.00
2023-01-20T21:38:54.714Z,-1.00
2023-01-20T21:41:22.110Z,-1.00
2023-01-20T21:44:08.356Z,-1.00
2023-01-20T21:46:40.428Z,-1.10
2023-01-20T21:49:27.532Z,-1.10
2023-01-20T21:52:14.460Z,-1.10
2023-01-20T21:54:42.223Z,-1.20
2023-01-20T21:57:09.678Z,-1.20
2023-01-20T21:59:37.361Z,-1.20
2023-01-20T22:02:04.759Z,-1.20
2023-01-20T22:04:32.772Z,-1.20
2023-01-20T22:07:00.527Z,-1.20
2023-01-20T22:09:27.831Z,-1.20
2023-01-20T22:11:55.160Z,-1.20
2023-01-20T22:14:22.536Z,-1.20
2023-01-20T22:16:49.854Z,-1.20
2023-01-20T22:19:17.220Z,-1.20
2023-01-20T22:21:44.642Z,-1.30
2023-01-20T22:24:14.807Z,-1.30
2023-01-20T22:26:42.258Z,-1.30
2023-01-20T22:29:09.535Z,-1.30
2023-01-20T22:31:36.867Z,-1.40
2023-01-20T22:34:06.167Z,-1.50
2023-01-20T22:36:34.032Z,-1.60
2023-01-20T22:39:01.992Z,-1.60
2023-01-20T22:41:29.692Z,-1.70
2023-01-20T22:43:57.409Z,-1.80
2023-01-20T22:46:26.708Z,-1.70
2023-01-20T22:48:56.199Z,-1.70
2023-01-20T22:51:29.056Z,-1.70
2023-01-20T22:53:58.268Z,-1.60
2023-01-20T22:56:28.903Z,-1.60
2023-01-20T22:58:57.524Z,-1.70
2023-01-20T23:01:35.603Z,-1.70
2023-01-20T23:04:05.108Z,-1.60
2023-01-20T23:06:35.350Z,-1.50
2023-01-20T23:09:08.367Z,-1.50
2023-01-20T23:11:38.202Z,-1.50
2023-01-20T23:14:06.401Z,-1.50
2023-01-20T23:16:33.686Z,-1.50
2023-01-20T23:19:01.088Z,-1.50
2023-01-20T23:21:28.475Z,-1.40
2023-01-20T23:23:55.830Z,-1.50
2023-01-20T23:26:26.344Z,-1.50
2023-01-20T23:28:55.149Z,-1.50
2023-01-20T23:31:24.834Z,-1.40
2023-01-20T23:33:54.105Z,-1.40
2023-01-20T23:36:26.082Z,-1.40
2023-01-20T23:38:54.612Z,-1.40
2023-01-20T23:41:22.756Z,-1.30
2023-01-20T23:43:49.977Z,-1.30
2023-01-20T23:46:17.274Z,-1.30
2023-01-20T23:48:47.718Z,-1.40
2023-01-20T23:51:15.788Z,-1.30
2023-01-20T23:53:43.201Z,-1.30
2023-01-20T23:56:17.117Z,-1.20
2023-01-20T23:58:45.181Z,-1.30
